createdAt,value
2022-10-17T00:01:10.568Z,6.45
2022-10-17T00:03:39.829Z,6.78
2022-10-17T00:06:08.985Z,6.38
2022-10-17T00:08:37.619Z,5.88
2022-10-17T00:11:08.516Z,6.20
2022-10-17T00:13:36.956Z,5.47
2022-10-17T00:16:07.254Z,6.15
2022-10-17T00:18:35.414Z,6.00
2022-10-17T00:21:03.409Z,6.50
2022-10-17T00:23:31.408Z,6.53
2022-10-17T00:26:00.646Z,6.15
2022-10-17T00:28:28.877Z,5.90
2022-10-17T00:30:58.839Z,5.90
2022-10-17T00:33:28.676Z,5.60
2022-10-17T00:36:05.268Z,5.85
2022-10-17T00:38:33.506Z,5.40
2022-10-17T00:41:01.804Z,5.90
2022-10-17T00:43:30.739Z,6.00
2022-10-17T00:45:58.777Z,5.95
2022-10-17T00:48:28.209Z,5.72
2022-10-17T00:50:56.439Z,5.30
2022-10-17T00:53:24.473Z,5.45
2022-10-17T00:55:55.007Z,5.20
2022-10-17T00:58:23.093Z,5.20
2022-10-17T01:00:51.214Z,4.68
2022-10-17T01:03:19.257Z,4.45
2022-10-17T01:05:48.694Z,4.47
2022-10-17T01:08:16.893Z,4.38
2022-10-17T01:10:54.097Z,4.43
2022-10-17T01:13:26.753Z,4.22
2022-10-17T01:16:05.776Z,4.80
2022-10-17T01:18:54.327Z,4.30
2022-10-17T01:21:49.214Z,4.38
2022-10-17T01:24:48.221Z,4.65
2022-10-17T01:27:57.817Z,4.45
2022-10-17T01:31:04.343Z,4.15
2022-10-17T01:33:40.542Z,4.78
2022-10-17T01:36:14.015Z,4.88
2022-10-17T01:38:48.398Z,4.93
2022-10-17T01:41:23.937Z,4.72
2022-10-17T01:43:56.990Z,5.05
2022-10-17T01:46:31.300Z,5.20
2022-10-17T01:49:02.906Z,4.97
2022-10-17T01:51:37.086Z,4.88
2022-10-17T01:54:12.602Z,5.03
2022-10-17T01:56:42.414Z,5.32
2022-10-17T01:59:14.425Z,5.35
2022-10-17T02:01:46.356Z,5.15
2022-10-17T02:04:14.373Z,5.43
2022-10-17T02:06:44.158Z,5.03
2022-10-17T02:09:21.012Z,4.95
2022-10-17T02:11:59.701Z,5.55
2022-10-17T02:14:39.430Z,5.40
2022-10-17T02:17:19.405Z,5.20
2022-10-17T02:19:58.863Z,5.82
2022-10-17T02:22:39.242Z,5.13
2022-10-17T02:25:15.735Z,5.47
2022-10-17T02:27:51.781Z,5.32
2022-10-17T02:30:30.549Z,4.93
2022-10-17T02:33:04.563Z,5.25
2022-10-17T02:35:38.451Z,5.68
2022-10-17T02:38:09.227Z,6.30
2022-10-17T02:40:39.245Z,7.88
2022-10-17T02:43:08.038Z,7.20
2022-10-17T02:45:38.763Z,6.40
2022-10-17T02:48:13.306Z,6.18
2022-10-17T02:50:50.222Z,6.25
2022-10-17T02:53:26.732Z,6.03
2022-10-17T02:55:59.663Z,5.50
2022-10-17T02:58:34.169Z,5.57
2022-10-17T03:01:03.220Z,5.80
2022-10-17T03:03:33.779Z,5.70
2022-10-17T03:06:03.102Z,5.95
2022-10-17T03:08:31.204Z,5.40
2022-10-17T03:10:59.253Z,5.72
2022-10-17T03:13:29.017Z,5.78
2022-10-17T03:15:58.026Z,5.68
2022-10-17T03:18:26.185Z,5.90
2022-10-17T03:21:00.257Z,5.68
2022-10-17T03:23:28.338Z,5.90
2022-10-17T03:25:56.811Z,6.00
2022-10-17T03:28:25.238Z,6.00
2022-10-17T03:30:53.630Z,6.00
2022-10-17T03:33:21.617Z,6.10
2022-10-17T03:38:24.303Z,5.93
2022-10-17T03:40:56.621Z,6.25
2022-10-17T03:43:24.821Z,6.25
2022-10-17T03:45:52.793Z,6.30
2022-10-17T03:48:20.954Z,6.32
2022-10-17T03:50:49.227Z,6.47
2022-10-17T03:53:17.514Z,5.78
2022-10-17T03:55:46.858Z,6.70
2022-10-17T03:58:14.862Z,6.18
2022-10-17T04:00:42.878Z,6.80
2022-10-17T04:03:16.269Z,6.63
2022-10-17T04:05:45.526Z,6.78
2022-10-17T04:08:13.554Z,6.78
2022-10-17T04:11:20.025Z,6.57
2022-10-17T04:13:53.372Z,6.53
2022-10-17T04:16:22.038Z,6.63
2022-10-17T04:19:00.360Z,7.47
2022-10-17T04:21:32.088Z,6.85
2022-10-17T04:24:05.622Z,6.80
2022-10-17T04:26:54.776Z,6.75
2022-10-17T04:29:26.557Z,7.03
2022-10-17T04:32:02.463Z,7.03
2022-10-17T04:34:40.341Z,6.75
2022-10-17T04:37:08.574Z,8.07
2022-10-17T04:39:37.518Z,7.72
2022-10-17T04:42:07.037Z,7.72
2022-10-17T04:44:35.846Z,8.30
2022-10-17T04:47:03.978Z,8.30
2022-10-17T04:49:32.263Z,8.02
2022-10-17T04:52:08.447Z,8.35
2022-10-17T04:54:43.594Z,8.35
2022-10-17T04:57:15.589Z,9.18
2022-10-17T04:59:51.168Z,9.02
2022-10-17T05:02:47.510Z,9.00
2022-10-17T05:05:16.317Z,8.82
2022-10-17T05:07:46.632Z,9.02
2022-10-17T05:10:19.250Z,9.02
2022-10-17T05:12:52.070Z,8.88
2022-10-17T05:15:23.177Z,9.43
2022-10-17T05:17:56.570Z,9.35
2022-10-17T05:20:26.219Z,9.00
2022-10-17T05:22:54.784Z,9.98
2022-10-17T05:25:24.332Z,9.48
2022-10-17T05:27:54.329Z,9.95
2022-10-17T05:30:22.398Z,9.77
2022-10-17T05:32:55.603Z,10.35
2022-10-17T05:35:24.145Z,10.00
2022-10-17T05:37:53.087Z,10.10
2022-10-17T05:40:22.213Z,11.20
2022-10-17T05:42:54.681Z,9.90
2022-10-17T05:45:23.650Z,10.45
2022-10-17T05:47:51.985Z,10.27
2022-10-17T05:50:21.570Z,11.02
2022-10-17T05:53:04.406Z,10.80
2022-10-17T05:55:36.536Z,10.50
2022-10-17T05:58:06.010Z,10.73
2022-10-17T06:00:38.358Z,10.68
2022-10-17T06:03:06.508Z,10.82
2022-10-17T06:05:36.697Z,10.55
2022-10-17T06:08:04.893Z,10.00
2022-10-17T06:10:36.229Z,10.25
2022-10-17T06:13:06.221Z,10.02
2022-10-17T06:15:34.370Z,10.88
2022-10-17T06:18:06.829Z,10.63
2022-10-17T06:20:34.880Z,10.40
2022-10-17T06:23:03.606Z,10.70
2022-10-17T06:25:46.069Z,10.45
2022-10-17T06:28:15.506Z,10.52
2022-10-17T06:30:43.678Z,10.35
2022-10-17T06:33:12.714Z,10.52
2022-10-17T06:35:40.722Z,10.82
2022-10-17T06:38:08.815Z,10.70
2022-10-17T06:40:38.141Z,10.18
2022-10-17T06:43:06.180Z,10.27
2022-10-17T06:46:11.075Z,9.90
2022-10-17T06:48:42.725Z,10.20
2022-10-17T06:51:29.774Z,10.13
2022-10-17T06:54:00.117Z,10.50
2022-10-17T06:56:48.436Z,10.40
2022-10-17T06:59:36.685Z,10.13
2022-10-17T07:02:13.300Z,10.15
2022-10-17T07:04:41.413Z,9.27
2022-10-17T07:07:09.523Z,9.48
2022-10-17T07:09:37.830Z,8.85
2022-10-17T07:12:08.411Z,9.35
2022-10-17T07:14:36.605Z,9.98
2022-10-17T07:17:05.056Z,9.40
2022-10-17T07:19:35.539Z,10.32
2022-10-17T07:22:05.206Z,9.50
2022-10-17T07:24:34.370Z,9.20
2022-10-17T07:27:15.347Z,9.00
2022-10-17T07:29:43.362Z,9.63
2022-10-17T07:32:18.180Z,8.70
2022-10-17T07:34:47.583Z,9.02
2022-10-17T07:37:16.365Z,8.85
2022-10-17T07:39:50.566Z,8.93
2022-10-17T07:42:18.668Z,9.23
2022-10-17T07:44:47.528Z,8.68
2022-10-17T07:47:15.795Z,8.80
2022-10-17T07:49:45.297Z,9.20
2022-10-17T07:52:15.981Z,9.07
2022-10-17T07:54:44.837Z,8.30
2022-10-17T07:57:12.883Z,8.45
2022-10-17T07:59:41.057Z,8.20
2022-10-17T08:02:22.963Z,8.05
2022-10-17T08:04:51.064Z,8.32
2022-10-17T08:07:24.347Z,8.68
2022-10-17T08:09:56.591Z,7.97
2022-10-17T08:12:26.012Z,8.15
2022-10-17T08:14:54.094Z,8.63
2022-10-17T08:17:22.771Z,8.30
2022-10-17T08:19:50.741Z,8.20
2022-10-17T08:22:20.198Z,8.35
2022-10-17T08:24:48.173Z,8.00
2022-10-17T08:27:21.470Z,8.18
2022-10-17T08:29:52.765Z,8.05
2022-10-17T08:32:21.574Z,8.57
2022-10-17T08:34:49.671Z,8.48
2022-10-17T08:37:17.668Z,7.97
2022-10-17T08:39:47.079Z,7.60
2022-10-17T08:42:32.027Z,7.95
2022-10-17T08:45:09.315Z,7.15
2022-10-17T08:47:40.041Z,7.70
2022-10-17T08:50:13.034Z,7.45
2022-10-17T08:52:43.759Z,7.82
2022-10-17T08:57:50.649Z,7.72
2022-10-17T09:00:20.493Z,7.30
2022-10-17T09:03:03.920Z,7.13
2022-10-17T09:05:42.506Z,7.00
2022-10-17T09:08:21.903Z,7.03
2022-10-17T09:10:59.232Z,6.53
2022-10-17T09:13:45.034Z,7.10
2022-10-17T09:16:33.466Z,7.25
2022-10-17T09:19:08.638Z,7.30
2022-10-17T09:21:44.407Z,7.35
2022-10-17T09:24:19.006Z,6.63
2022-10-17T09:26:48.582Z,6.90
2022-10-17T09:29:21.237Z,7.00
2022-10-17T09:34:32.518Z,7.00
2022-10-17T09:37:01.946Z,7.35
2022-10-17T09:39:31.999Z,6.72
2022-10-17T09:42:02.817Z,6.95
2022-10-17T09:44:33.324Z,7.20
2022-10-17T09:47:15.158Z,7.43
2022-10-17T09:49:45.392Z,7.30
2022-10-17T09:52:17.306Z,7.18
2022-10-17T09:54:48.122Z,7.15
2022-10-17T09:57:19.057Z,7.05
2022-10-17T09:59:48.860Z,7.65
2022-10-17T10:02:22.402Z,7.43
2022-10-17T10:05:10.306Z,7.43
2022-10-17T10:07:40.383Z,7.03
2022-10-17T10:10:27.633Z,7.15
2022-10-17T10:13:17.353Z,7.40
2022-10-17T10:15:47.660Z,7.35
2022-10-17T10:18:32.160Z,7.38
2022-10-17T10:21:10.688Z,7.40
2022-10-17T10:23:40.493Z,7.82
2022-10-17T10:26:22.677Z,7.32
2022-10-17T10:29:01.294Z,7.47
2022-10-17T10:31:40.653Z,7.63
2022-10-17T10:34:20.666Z,8.30
2022-10-17T10:36:59.023Z,7.75
2022-10-17T10:39:46.950Z,8.07
2022-10-17T10:42:23.103Z,7.60
2022-10-17T10:44:53.899Z,7.50
2022-10-17T10:47:26.129Z,7.90
2022-10-17T10:50:09.883Z,8.05
2022-10-17T10:52:43.607Z,7.72
2022-10-17T10:55:25.185Z,7.90
2022-10-17T10:57:57.915Z,8.07
2022-10-17T11:00:30.269Z,8.57
2022-10-17T11:03:04.313Z,8.65
2022-10-17T11:05:42.122Z,8.95
2022-10-17T11:08:21.325Z,8.77
2022-10-17T11:11:01.022Z,9.25
2022-10-17T11:13:35.040Z,9.27
2022-10-17T11:16:22.513Z,8.32
2022-10-17T11:18:54.526Z,9.15
2022-10-17T11:21:33.788Z,8.80
2022-10-17T11:24:09.276Z,9.93
2022-10-17T11:26:45.565Z,8.98
2022-10-17T11:29:14.629Z,9.48
2022-10-17T11:31:51.795Z,9.35
2022-10-17T11:34:26.132Z,8.65
2022-10-17T11:36:57.843Z,9.90
2022-10-17T11:39:31.196Z,9.60
2022-10-17T11:42:06.715Z,9.90
2022-10-17T11:44:37.577Z,14.18
2022-10-17T11:47:14.627Z,11.65
2022-10-17T11:49:49.929Z,12.05
2022-10-17T11:52:51.889Z,10.50
2022-10-17T11:55:21.596Z,10.65
2022-10-17T11:57:58.486Z,11.00
2022-10-17T12:00:39.187Z,10.55
2022-10-17T12:03:27.706Z,10.68
2022-10-17T12:06:00.960Z,12.10
2022-10-17T12:08:34.761Z,12.15
2022-10-17T12:11:07.316Z,11.07
2022-10-17T12:13:53.470Z,12.35
2022-10-17T12:16:46.841Z,12.35
2022-10-17T12:19:38.446Z,10.95
2022-10-17T12:22:22.013Z,12.50
2022-10-17T12:25:01.531Z,12.55
2022-10-17T12:27:42.541Z,12.63
2022-10-17T12:30:25.061Z,12.55
2022-10-17T12:33:22.179Z,10.73
2022-10-17T12:35:53.199Z,12.23
2022-10-17T12:38:24.438Z,12.20
2022-10-17T12:41:00.531Z,11.23
2022-10-17T12:43:57.904Z,11.30
2022-10-17T12:46:51.069Z,10.98
2022-10-17T12:49:51.988Z,10.25
2022-10-17T12:52:49.355Z,11.23
2022-10-17T12:55:18.963Z,10.60
2022-10-17T12:57:58.239Z,10.50
2022-10-17T13:00:34.380Z,10.65
2022-10-17T13:03:11.778Z,9.15
2022-10-17T13:05:43.335Z,9.85
2022-10-17T13:08:19.043Z,9.60
2022-10-17T13:10:52.397Z,8.90
2022-10-17T13:13:23.017Z,8.15
2022-10-17T13:15:53.397Z,8.60
2022-10-17T13:18:24.455Z,8.82
2022-10-17T13:21:01.008Z,8.38
2022-10-17T13:23:33.976Z,8.23
2022-10-17T13:26:07.727Z,8.40
2022-10-17T13:28:39.407Z,8.07
2022-10-17T13:31:08.209Z,7.95
2022-10-17T13:33:39.251Z,7.85
2022-10-17T13:36:10.291Z,8.32
2022-10-17T13:38:41.858Z,8.57
2022-10-17T13:44:04.812Z,8.52
2022-10-17T13:46:39.301Z,8.80
2022-10-17T13:49:14.074Z,8.82
2022-10-17T13:51:45.949Z,10.45
2022-10-17T13:54:41.125Z,13.40
2022-10-17T13:57:21.502Z,12.25
2022-10-17T13:59:51.910Z,9.50
2022-10-17T14:02:22.377Z,9.02
2022-10-17T14:05:18.593Z,8.40
2022-10-17T14:08:11.460Z,8.35
2022-10-17T14:10:42.924Z,8.55
2022-10-17T14:13:22.046Z,8.10
2022-10-17T14:15:51.139Z,8.10
2022-10-17T14:18:22.705Z,7.70
2022-10-17T14:23:42.008Z,8.40
2022-10-17T14:26:15.159Z,8.38
2022-10-17T14:28:45.120Z,8.18
2022-10-17T14:31:30.941Z,8.00
2022-10-17T14:34:00.952Z,6.50
2022-10-17T14:36:35.214Z,6.72
2022-10-17T14:39:08.489Z,6.03
2022-10-17T14:41:44.689Z,4.82
2022-10-17T14:44:21.954Z,4.57
2022-10-17T14:46:54.610Z,4.57
2022-10-17T14:49:34.078Z,4.40
2022-10-17T14:52:27.393Z,4.45
2022-10-17T14:54:55.825Z,4.10
2022-10-17T14:57:28.647Z,3.95
2022-10-17T14:59:57.608Z,4.40
2022-10-17T15:02:26.298Z,4.60
2022-10-17T15:04:54.979Z,4.18
2022-10-17T15:07:23.760Z,4.47
2022-10-17T15:09:53.709Z,3.90
2022-10-17T15:12:24.990Z,3.97
2022-10-17T15:14:55.166Z,4.45
2022-10-17T15:17:25.905Z,4.00
2022-10-17T15:19:54.605Z,3.60
2022-10-17T15:22:22.887Z,3.42
2022-10-17T15:24:50.981Z,3.53
2022-10-17T15:27:21.013Z,2.72
2022-10-17T15:29:49.670Z,2.85
2022-10-17T15:32:19.080Z,4.10
2022-10-17T15:34:47.506Z,3.75
2022-10-17T15:37:20.817Z,3.75
2022-10-17T15:39:53.412Z,3.35
2022-10-17T15:42:23.850Z,3.47
2022-10-17T15:44:51.893Z,4.25
2022-10-17T15:47:25.757Z,4.07
2022-10-17T15:49:54.547Z,4.30
2022-10-17T15:52:23.132Z,3.80
2022-10-17T15:54:51.289Z,3.92
2022-10-17T15:57:21.454Z,4.00
2022-10-17T15:59:50.337Z,3.70
2022-10-17T16:02:20.251Z,3.95
2022-10-17T16:04:50.622Z,3.63
2022-10-17T16:07:19.463Z,4.45
2022-10-17T16:09:47.829Z,4.03
2022-10-17T16:12:19.326Z,4.57
2022-10-17T16:14:47.496Z,4.93
2022-10-17T16:17:16.325Z,4.18
2022-10-17T16:19:45.008Z,3.42
2022-10-17T16:22:36.514Z,3.42
2022-10-17T16:25:10.013Z,3.13
2022-10-17T16:27:38.870Z,2.78
2022-10-17T16:30:08.870Z,3.03
2022-10-17T16:32:36.932Z,2.70
2022-10-17T16:35:05.410Z,2.78
2022-10-17T16:37:35.842Z,2.63
2022-10-17T16:40:04.471Z,2.60
2022-10-17T16:42:32.854Z,2.63
2022-10-17T16:45:01.110Z,3.42
2022-10-17T16:47:29.098Z,3.13
2022-10-17T16:49:57.518Z,2.95
2022-10-17T16:52:25.601Z,3.00
2022-10-17T16:54:54.982Z,2.72
2022-10-17T16:57:23.066Z,3.90
2022-10-17T16:59:51.050Z,3.70
2022-10-17T17:02:21.275Z,3.83
2022-10-17T17:04:49.711Z,3.47
2022-10-17T17:07:18.672Z,3.47
2022-10-17T17:09:46.682Z,2.95
2022-10-17T17:12:16.209Z,3.28
2022-10-17T17:14:44.403Z,3.30
2022-10-17T17:17:19.633Z,3.15
2022-10-17T17:19:58.509Z,3.38
2022-10-17T17:22:26.607Z,3.45
2022-10-17T17:24:54.587Z,3.63
2022-10-17T17:27:25.153Z,3.75
2022-10-17T17:29:53.412Z,4.57
2022-10-17T17:32:21.694Z,4.50
2022-10-17T17:34:49.692Z,4.85
2022-10-17T17:37:17.689Z,5.05
2022-10-17T17:39:45.679Z,3.78
2022-10-17T17:42:13.682Z,3.97
2022-10-17T17:44:43.045Z,4.15
2022-10-17T17:47:11.070Z,4.30
2022-10-17T17:49:39.142Z,3.88
2022-10-17T17:52:07.322Z,3.70
2022-10-17T17:54:38.543Z,3.95
2022-10-17T17:57:08.868Z,6.00
2022-10-17T17:59:37.028Z,4.53
2022-10-17T18:02:06.986Z,4.07
2022-10-17T18:04:35.158Z,4.15
2022-10-17T18:07:03.161Z,5.82
2022-10-17T18:09:31.187Z,4.32
2022-10-17T18:11:59.157Z,4.95
2022-10-17T18:14:27.320Z,5.00
2022-10-17T18:16:55.298Z,4.85
2022-10-17T18:19:24.705Z,5.35
2022-10-17T18:21:52.749Z,5.13
2022-10-17T18:24:20.734Z,6.32
2022-10-17T18:26:48.905Z,6.25
2022-10-17T18:29:17.055Z,6.50
2022-10-17T18:31:45.175Z,5.95
2022-10-17T18:34:13.189Z,6.00
2022-10-17T18:36:42.585Z,6.90
2022-10-17T18:39:10.627Z,7.03
2022-10-17T18:41:38.663Z,6.22
2022-10-17T18:44:06.625Z,6.80
2022-10-17T18:46:40.710Z,7.18
2022-10-17T18:49:10.186Z,7.32
2022-10-17T18:51:38.392Z,8.00
2022-10-17T18:54:12.467Z,8.13
2022-10-17T18:56:40.543Z,7.95
2022-10-17T18:59:08.522Z,8.98
2022-10-17T19:01:36.702Z,9.18
2022-10-17T19:04:05.065Z,8.98
2022-10-17T19:06:33.407Z,8.80
2022-10-17T19:09:03.065Z,9.45
2022-10-17T19:11:33.825Z,8.70
2022-10-17T19:14:03.842Z,9.48
2022-10-17T19:16:34.273Z,10.07
2022-10-17T19:19:04.709Z,10.15
2022-10-17T19:21:33.102Z,9.32
2022-10-17T19:24:03.398Z,9.68
2022-10-17T19:26:35.048Z,10.18
2022-10-17T19:29:03.545Z,10.30
2022-10-17T19:31:33.149Z,10.50
2022-10-17T19:34:01.574Z,10.68
2022-10-17T19:36:33.630Z,11.07
2022-10-17T19:39:02.552Z,11.18
2022-10-17T19:41:32.256Z,11.50
2022-10-17T19:44:01.352Z,12.85
2022-10-17T19:46:30.971Z,11.63
2022-10-17T19:48:59.167Z,13.15
2022-10-17T19:51:29.043Z,12.95
2022-10-17T19:54:00.365Z,13.07
2022-10-17T19:56:30.110Z,13.63
2022-10-17T19:59:00.228Z,14.10
2022-10-17T20:01:36.228Z,14.82
2022-10-17T20:04:04.359Z,14.25
2022-10-17T20:06:34.131Z,14.60
2022-10-17T20:09:02.510Z,14.60
2022-10-17T20:11:30.849Z,15.52
2022-10-17T20:14:01.775Z,16.33
2022-10-17T20:16:31.995Z,15.57
2022-10-17T20:19:05.454Z,16.75
2022-10-17T20:21:35.125Z,17.23
2022-10-17T20:24:04.889Z,17.85
2022-10-17T20:26:38.022Z,17.70
2022-10-17T20:29:10.999Z,18.45
2022-10-17T20:31:40.384Z,17.25
2022-10-17T20:34:08.446Z,17.17
2022-10-17T20:36:37.516Z,17.85
2022-10-17T20:39:07.232Z,17.52
2022-10-17T20:41:35.765Z,18.30
2022-10-17T20:44:04.208Z,18.27
2022-10-17T20:46:38.344Z,17.90
2022-10-17T20:49:11.972Z,17.80
2022-10-17T20:51:40.034Z,18.70
2022-10-17T20:54:08.122Z,19.55
2022-10-17T20:56:37.254Z,19.60
2022-10-17T20:59:08.155Z,19.75
2022-10-17T21:01:37.678Z,19.25
2022-10-17T21:04:33.279Z,20.00
2022-10-17T21:06:54.118Z,21.15
2022-10-17T21:09:22.980Z,22.58
2022-10-17T21:11:55.229Z,21.52
2022-10-17T21:14:24.289Z,22.00
2022-10-17T21:16:53.900Z,22.95
2022-10-17T21:19:22.744Z,24.20
2022-10-17T21:21:51.330Z,22.98
2022-10-17T21:24:20.857Z,22.85
2022-10-17T21:26:55.519Z,23.85
2022-10-17T21:29:24.597Z,23.25
2022-10-17T21:31:54.082Z,23.83
2022-10-17T21:34:24.547Z,23.20
2022-10-17T21:36:53.225Z,23.98
2022-10-17T21:39:21.854Z,23.25
2022-10-17T21:41:49.976Z,23.20
2022-10-17T21:44:19.925Z,23.98
2022-10-17T21:46:48.383Z,23.88
2022-10-17T21:49:19.669Z,23.73
2022-10-17T21:51:48.620Z,24.17
2022-10-17T21:54:17.751Z,23.70
2022-10-17T21:56:46.255Z,24.25
2022-10-17T21:59:14.397Z,24.95
2022-10-17T22:01:44.069Z,24.88
2022-10-17T22:04:16.319Z,24.15
2022-10-17T22:06:47.218Z,24.50
2022-10-17T22:09:21.042Z,24.60
2022-10-17T22:11:52.177Z,24.70
2022-10-17T22:14:22.643Z,23.35
2022-10-17T22:16:51.455Z,23.83
2022-10-17T22:19:21.632Z,24.50
2022-10-17T22:21:51.216Z,23.25
2022-10-17T22:26:49.832Z,23.42
2022-10-17T22:29:18.329Z,24.70
2022-10-17T22:31:46.347Z,25.83
2022-10-17T22:34:16.262Z,25.95
2022-10-17T22:36:44.685Z,25.48
2022-10-17T22:39:14.042Z,24.85
2022-10-17T22:41:42.037Z,25.17
2022-10-17T22:44:10.297Z,26.33
2022-10-17T22:46:38.339Z,26.13
2022-10-17T22:49:06.359Z,26.67
2022-10-17T22:51:34.363Z,27.25
2022-10-17T22:54:02.405Z,26.80
2022-10-17T22:56:31.792Z,27.20
2022-10-17T22:58:59.776Z,26.35
2022-10-17T23:01:27.820Z,26.85
2022-10-17T23:03:55.898Z,26.90
2022-10-17T23:06:24.141Z,28.10
2022-10-17T23:08:52.202Z,28.20
2022-10-17T23:11:20.871Z,27.00
2022-10-17T23:13:50.485Z,35.42
2022-10-17T23:16:18.588Z,32.00
2022-10-17T23:18:46.630Z,29.23
2022-10-17T23:21:14.746Z,28.98
2022-10-17T23:23:42.801Z,27.60
2022-10-17T23:26:12.840Z,29.38
2022-10-17T23:28:41.723Z,29.45
2022-10-17T23:31:13.065Z,29.45
2022-10-17T23:33:41.509Z,29.55
2022-10-17T23:36:10.764Z,33.67
2022-10-17T23:38:39.072Z,31.20
2022-10-17T23:41:07.347Z,33.55
2022-10-17T23:43:35.913Z,31.70
2022-10-17T23:46:04.826Z,30.20
2022-10-17T23:48:34.291Z,34.75
2022-10-17T23:51:02.482Z,29.95
2022-10-17T23:53:30.517Z,29.65
2022-10-17T23:55:58.553Z,30.35
2022-10-17T23:58:26.578Z,30.80
